sensor_id;sensor_type;location;lat;lon;timestamp;temperature;humidity
40676;DHT22;26359;48.750;9.314;2023-06-14T00:01:16;16.90;90.40
40676;DHT22;26359;48.750;9.314;2023-06-14T00:03:42;17.00;90.40
40676;DHT22;26359;48.750;9.314;2023-06-14T00:06:07;17.00;90.60
40676;DHT22;26359;48.750;9.314;2023-06-14T00:08:33;16.90;90.80
40676;DHT22;26359;48.750;9.314;2023-06-14T00:10:58;16.90;90.70
40676;DHT22;26359;48.750;9.314;2023-06-14T00:13:25;16.80;91.20
40676;DHT22;26359;48.750;9.314;2023-06-14T00:15:51;16.70;91.10
40676;DHT22;26359;48.750;9.314;2023-06-14T00:18:20;16.80;91.00
40676;DHT22;26359;48.750;9.314;2023-06-14T00:20:49;16.70;91.10
40676;DHT22;26359;48.750;9.314;2023-06-14T00:23:15;16.70;91.40
40676;DHT22;26359;48.750;9.314;2023-06-14T00:25:40;16.60;91.20
40676;DHT22;26359;48.750;9.314;2023-06-14T00:28:06;16.60;91.60
40676;DHT22;26359;48.750;9.314;2023-06-14T00:30:31;16.60;91.80
40676;DHT22;26359;48.750;9.314;2023-06-14T00:32:57;16.60;91.60
40676;DHT22;26359;48.750;9.314;2023-06-14T00:35:23;16.60;91.60
40676;DHT22;26359;48.750;9.314;2023-06-14T00:37:49;16.60;91.70
40676;DHT22;26359;48.750;9.314;2023-06-14T00:40:14;16.60;91.60
40676;DHT22;26359;48.750;9.314;2023-06-14T00:42:40;16.70;91.40
40676;DHT22;26359;48.750;9.314;2023-06-14T00:45:06;16.60;91.70
40676;DHT22;26359;48.750;9.314;2023-06-14T00:47:31;16.50;91.80
40676;DHT22;26359;48.750;9.314;2023-06-14T00:49:57;16.50;91.60
40676;DHT22;26359;48.750;9.314;2023-06-14T00:52:24;16.50;91.70
40676;DHT22;26359;48.750;9.314;2023-06-14T00:54:49;16.40;92.30
40676;DHT22;26359;48.750;9.314;2023-06-14T00:57:15;16.30;92.30
40676;DHT22;26359;48.750;9.314;2023-06-14T00:59:49;16.30;92.20
40676;DHT22;26359;48.750;9.314;2023-06-14T01:02:15;16.30;92.60
40676;DHT22;26359;48.750;9.314;2023-06-14T01:04:42;16.20;93.30
40676;DHT22;26359;48.750;9.314;2023-06-14T01:12:47;16.10;93.00
40676;DHT22;26359;48.750;9.314;2023-06-14T01:15:15;16.00;93.10
40676;DHT22;26359;48.750;9.314;2023-06-14T01:17:41;16.00;93.10
40676;DHT22;26359;48.750;9.314;2023-06-14T01:20:11;16.00;93.10
40676;DHT22;26359;48.750;9.314;2023-06-14T01:22:50;16.00;92.90
40676;DHT22;26359;48.750;9.314;2023-06-14T01:25:16;16.00;93.00
40676;DHT22;26359;48.750;9.314;2023-06-14T01:27:42;15.90;93.40
40676;DHT22;26359;48.750;9.314;2023-06-14T01:30:08;15.90;93.40
40676;DHT22;26359;48.750;9.314;2023-06-14T01:32:35;15.80;93.20
40676;DHT22;26359;48.750;9.314;2023-06-14T01:35:01;15.80;93.20
40676;DHT22;26359;48.750;9.314;2023-06-14T01:37:29;15.80;93.70
40676;DHT22;26359;48.750;9.314;2023-06-14T01:39:55;15.70;93.60
40676;DHT22;26359;48.750;9.314;2023-06-14T01:42:22;15.70;93.60
40676;DHT22;26359;48.750;9.314;2023-06-14T01:44:48;15.70;93.60
40676;DHT22;26359;48.750;9.314;2023-06-14T01:47:14;15.70;93.60
40676;DHT22;26359;48.750;9.314;2023-06-14T01:49:40;15.70;93.90
40676;DHT22;26359;48.750;9.314;2023-06-14T01:52:06;15.60;94.00
40676;DHT22;26359;48.750;9.314;2023-06-14T01:54:35;15.50;94.00
40676;DHT22;26359;48.750;9.314;2023-06-14T01:57:03;15.60;94.10
40676;DHT22;26359;48.750;9.314;2023-06-14T01:59:28;15.60;94.30
40676;DHT22;26359;48.750;9.314;2023-06-14T02:01:56;15.60;94.10
40676;DHT22;26359;48.750;9.314;2023-06-14T02:04:22;15.60;94.20
40676;DHT22;26359;48.750;9.314;2023-06-14T02:06:47;15.50;94.40
40676;DHT22;26359;48.750;9.314;2023-06-14T02:09:12;15.50;94.40
40676;DHT22;26359;48.750;9.314;2023-06-14T02:11:38;15.50;94.60
40676;DHT22;26359;48.750;9.314;2023-06-14T02:14:04;15.50;94.70
40676;DHT22;26359;48.750;9.314;2023-06-14T02:16:29;15.40;94.70
40676;DHT22;26359;48.750;9.314;2023-06-14T02:18:55;15.40;95.10
40676;DHT22;26359;48.750;9.314;2023-06-14T02:21:22;15.30;95.00
40676;DHT22;26359;48.750;9.314;2023-06-14T02:23:47;15.40;95.10
40676;DHT22;26359;48.750;9.314;2023-06-14T02:26:13;15.30;95.10
40676;DHT22;26359;48.750;9.314;2023-06-14T02:28:38;15.20;95.70
40676;DHT22;26359;48.750;9.314;2023-06-14T02:31:04;15.20;95.70
40676;DHT22;26359;48.750;9.314;2023-06-14T02:33:29;15.20;95.80
40676;DHT22;26359;48.750;9.314;2023-06-14T02:35:55;15.10;95.90
40676;DHT22;26359;48.750;9.314;2023-06-14T02:38:21;15.10;96.10
40676;DHT22;26359;48.750;9.314;2023-06-14T02:40:47;15.10;96.00
40676;DHT22;26359;48.750;9.314;2023-06-14T02:43:12;15.10;95.90
40676;DHT22;26359;48.750;9.314;2023-06-14T02:45:38;15.10;95.90
40676;DHT22;26359;48.750;9.314;2023-06-14T02:48:03;15.10;95.90
40676;DHT22;26359;48.750;9.314;2023-06-14T02:50:29;15.00;96.50
40676;DHT22;26359;48.750;9.314;2023-06-14T02:52:55;14.90;96.50
40676;DHT22;26359;48.750;9.314;2023-06-14T02:55:22;14.90;96.70
40676;DHT22;26359;48.750;9.314;2023-06-14T02:57:47;14.90;96.70
40676;DHT22;26359;48.750;9.314;2023-06-14T03:00:13;14.90;96.50
40676;DHT22;26359;48.750;9.314;2023-06-14T03:02:39;14.90;96.50
40676;DHT22;26359;48.750;9.314;2023-06-14T03:05:05;14.90;96.60
40676;DHT22;26359;48.750;9.314;2023-06-14T03:07:32;14.80;97.10
40676;DHT22;26359;48.750;9.314;2023-06-14T03:09:58;14.70;97.30
40676;DHT22;26359;48.750;9.314;2023-06-14T03:12:23;14.60;97.10
40676;DHT22;26359;48.750;9.314;2023-06-14T03:14:49;14.70;96.90
40676;DHT22;26359;48.750;9.314;2023-06-14T03:17:16;14.80;96.90
40676;DHT22;26359;48.750;9.314;2023-06-14T03:19:42;14.80;96.70
40676;DHT22;26359;48.750;9.314;2023-06-14T03:22:08;14.80;96.70
40676;DHT22;26359;48.750;9.314;2023-06-14T03:24:34;14.80;96.90
40676;DHT22;26359;48.750;9.314;2023-06-14T03:27:02;14.70;97.10
40676;DHT22;26359;48.750;9.314;2023-06-14T03:29:27;14.60;97.70
40676;DHT22;26359;48.750;9.314;2023-06-14T03:31:58;14.60;97.40
40676;DHT22;26359;48.750;9.314;2023-06-14T03:34:24;14.60;97.30
40676;DHT22;26359;48.750;9.314;2023-06-14T03:36:50;14.60;97.20
40676;DHT22;26359;48.750;9.314;2023-06-14T03:39:15;14.60;97.10
40676;DHT22;26359;48.750;9.314;2023-06-14T03:41:41;14.50;97.10
40676;DHT22;26359;48.750;9.314;2023-06-14T03:44:06;14.50;97.00
40676;DHT22;26359;48.750;9.314;2023-06-14T03:46:32;14.40;97.30
40676;DHT22;26359;48.750;9.314;2023-06-14T03:48:57;14.30;97.70
40676;DHT22;26359;48.750;9.314;2023-06-14T03:51:23;14.30;97.40
40676;DHT22;26359;48.750;9.314;2023-06-14T03:53:50;14.20;97.60
40676;DHT22;26359;48.750;9.314;2023-06-14T03:56:16;14.20;97.60
40676;DHT22;26359;48.750;9.314;2023-06-14T03:58:41;14.20;97.70
40676;DHT22;26359;48.750;9.314;2023-06-14T04:01:07;14.20;97.60
40676;DHT22;26359;48.750;9.314;2023-06-14T04:03:33;14.30;97.70
40676;DHT22;26359;48.750;9.314;2023-06-14T04:05:58;14.30;97.50
40676;DHT22;26359;48.750;9.314;2023-06-14T04:08:25;14.40;97.80
40676;DHT22;26359;48.750;9.314;2023-06-14T04:10:50;14.40;97.50
40676;DHT22;26359;48.750;9.314;2023-06-14T04:13:16;14.30;98.10
40676;DHT22;26359;48.750;9.314;2023-06-14T04:15:42;14.30;98.40
40676;DHT22;26359;48.750;9.314;2023-06-14T04:18:09;14.20;98.80
40676;DHT22;26359;48.750;9.314;2023-06-14T04:20:34;14.30;98.80
40676;DHT22;26359;48.750;9.314;2023-06-14T04:23:11;14.30;98.40
40676;DHT22;26359;48.750;9.314;2023-06-14T04:25:38;14.40;98.30
40676;DHT22;26359;48.750;9.314;2023-06-14T04:28:03;14.30;98.20
40676;DHT22;26359;48.750;9.314;2023-06-14T04:30:29;14.40;98.10
40676;DHT22;26359;48.750;9.314;2023-06-14T04:32:56;14.40;98.30
40676;DHT22;26359;48.750;9.314;2023-06-14T04:35:22;14.40;98.10
40676;DHT22;26359;48.750;9.314;2023-06-14T04:37:50;14.30;97.40
40676;DHT22;26359;48.750;9.314;2023-06-14T04:40:17;14.30;98.30
40676;DHT22;26359;48.750;9.314;2023-06-14T04:42:43;14.30;98.40
40676;DHT22;26359;48.750;9.314;2023-06-14T04:45:10;14.40;98.60
40676;DHT22;26359;48.750;9.314;2023-06-14T04:47:36;14.40;98.70
40676;DHT22;26359;48.750;9.314;2023-06-14T04:50:03;14.50;98.40
40676;DHT22;26359;48.750;9.314;2023-06-14T04:52:28;14.50;98.60
40676;DHT22;26359;48.750;9.314;2023-06-14T04:54:55;14.60;98.40
40676;DHT22;26359;48.750;9.314;2023-06-14T04:57:21;14.60;98.20
40676;DHT22;26359;48.750;9.314;2023-06-14T04:59:48;14.60;98.60
40676;DHT22;26359;48.750;9.314;2023-06-14T05:02:14;14.60;98.60
40676;DHT22;26359;48.750;9.314;2023-06-14T05:04:39;14.60;98.30
40676;DHT22;26359;48.750;9.314;2023-06-14T05:07:08;14.50;97.70
40676;DHT22;26359;48.750;9.314;2023-06-14T05:09:35;14.50;97.80
40676;DHT22;26359;48.750;9.314;2023-06-14T05:12:01;14.50;98.00
40676;DHT22;26359;48.750;9.314;2023-06-14T05:14:26;14.50;98.40
40676;DHT22;26359;48.750;9.314;2023-06-14T05:16:52;14.50;98.70
40676;DHT22;26359;48.750;9.314;2023-06-14T05:19:18;14.50;98.60
40676;DHT22;26359;48.750;9.314;2023-06-14T05:21:47;14.50;99.10
40676;DHT22;26359;48.750;9.314;2023-06-14T05:24:13;14.60;98.90
40676;DHT22;26359;48.750;9.314;2023-06-14T05:26:39;14.60;99.10
40676;DHT22;26359;48.750;9.314;2023-06-14T05:29:04;14.70;99.20
40676;DHT22;26359;48.750;9.314;2023-06-14T05:31:30;14.70;99.30
40676;DHT22;26359;48.750;9.314;2023-06-14T05:33:56;14.80;98.60
40676;DHT22;26359;48.750;9.314;2023-06-14T05:36:22;14.90;98.40
40676;DHT22;26359;48.750;9.314;2023-06-14T05:38:47;14.90;98.10
40676;DHT22;26359;48.750;9.314;2023-06-14T05:41:13;14.90;98.30
40676;DHT22;26359;48.750;9.314;2023-06-14T05:43:39;15.00;98.00
40676;DHT22;26359;48.750;9.314;2023-06-14T05:46:04;15.00;97.90
40676;DHT22;26359;48.750;9.314;2023-06-14T05:48:30;15.10;98.60
40676;DHT22;26359;48.750;9.314;2023-06-14T05:50:56;15.10;97.70
40676;DHT22;26359;48.750;9.314;2023-06-14T05:53:22;15.10;98.00
40676;DHT22;26359;48.750;9.314;2023-06-14T05:55:47;15.20;97.70
40676;DHT22;26359;48.750;9.314;2023-06-14T05:58:13;15.20;97.60
40676;DHT22;26359;48.750;9.314;2023-06-14T06:00:39;15.30;97.80
40676;DHT22;26359;48.750;9.314;2023-06-14T06:03:05;15.30;97.90
40676;DHT22;26359;48.750;9.314;2023-06-14T06:05:33;15.30;97.80
40676;DHT22;26359;48.750;9.314;2023-06-14T06:07:58;15.30;97.90
40676;DHT22;26359;48.750;9.314;2023-06-14T06:10:24;15.40;97.60
40676;DHT22;26359;48.750;9.314;2023-06-14T06:12:50;15.50;97.20
40676;DHT22;26359;48.750;9.314;2023-06-14T06:15:17;15.60;97.60
40676;DHT22;26359;48.750;9.314;2023-06-14T06:17:44;15.70;97.30
40676;DHT22;26359;48.750;9.314;2023-06-14T06:20:10;15.80;96.90
40676;DHT22;26359;48.750;9.314;2023-06-14T06:22:37;16.00;95.90
40676;DHT22;26359;48.750;9.314;2023-06-14T06:25:02;16.10;95.80
40676;DHT22;26359;48.750;9.314;2023-06-14T06:27:28;16.20;95.70
40676;DHT22;26359;48.750;9.314;2023-06-14T06:29:54;16.30;95.80
40676;DHT22;26359;48.750;9.314;2023-06-14T06:32:19;16.40;95.60
40676;DHT22;26359;48.750;9.314;2023-06-14T06:34:45;16.40;95.20
40676;DHT22;26359;48.750;9.314;2023-06-14T06:37:10;16.50;95.40
40676;DHT22;26359;48.750;9.314;2023-06-14T06:39:36;16.60;95.30
40676;DHT22;26359;48.750;9.314;2023-06-14T06:42:01;16.70;95.00
40676;DHT22;26359;48.750;9.314;2023-06-14T06:44:27;16.80;94.70
40676;DHT22;26359;48.750;9.314;2023-06-14T06:46:52;16.80;94.40
40676;DHT22;26359;48.750;9.314;2023-06-14T06:49:18;17.00;94.30
40676;DHT22;26359;48.750;9.314;2023-06-14T06:52:07;17.10;94.00
40676;DHT22;26359;48.750;9.314;2023-06-14T06:54:33;17.20;93.40
40676;DHT22;26359;48.750;9.314;2023-06-14T06:56:59;17.40;93.80
40676;DHT22;26359;48.750;9.314;2023-06-14T06:59:26;17.60;93.20
40676;DHT22;26359;48.750;9.314;2023-06-14T07:01:52;17.60;93.20
40676;DHT22;26359;48.750;9.314;2023-06-14T07:04:17;17.70;93.20
40676;DHT22;26359;48.750;9.314;2023-06-14T07:06:43;17.90;93.20
40676;DHT22;26359;48.750;9.314;2023-06-14T07:09:09;18.20;93.00
40676;DHT22;26359;48.750;9.314;2023-06-14T07:11:39;18.50;92.70
40676;DHT22;26359;48.750;9.314;2023-06-14T07:14:05;18.60;92.20
40676;DHT22;26359;48.750;9.314;2023-06-14T07:16:31;18.70;91.80
40676;DHT22;26359;48.750;9.314;2023-06-14T07:18:56;18.90;91.70
40676;DHT22;26359;48.750;9.314;2023-06-14T07:21:22;18.80;92.00
40676;DHT22;26359;48.750;9.314;2023-06-14T07:23:47;18.90;91.70
40676;DHT22;26359;48.750;9.314;2023-06-14T07:26:13;18.90;92.00
40676;DHT22;26359;48.750;9.314;2023-06-14T07:28:38;19.00;91.50
40676;DHT22;26359;48.750;9.314;2023-06-14T07:31:04;19.00;91.80
40676;DHT22;26359;48.750;9.314;2023-06-14T07:33:29;18.90;91.70
40676;DHT22;26359;48.750;9.314;2023-06-14T07:35:55;19.00;91.80
40676;DHT22;26359;48.750;9.314;2023-06-14T07:38:21;19.30;91.50
40676;DHT22;26359;48.750;9.314;2023-06-14T07:40:46;19.30;91.10
40676;DHT22;26359;48.750;9.314;2023-06-14T07:43:12;19.30;90.80
40676;DHT22;26359;48.750;9.314;2023-06-14T07:45:38;19.30;91.60
40676;DHT22;26359;48.750;9.314;2023-06-14T07:48:03;19.30;91.40
40676;DHT22;26359;48.750;9.314;2023-06-14T07:50:29;19.40;91.20
40676;DHT22;26359;48.750;9.314;2023-06-14T07:52:55;19.50;91.10
40676;DHT22;26359;48.750;9.314;2023-06-14T07:55:21;19.60;91.00
40676;DHT22;26359;48.750;9.314;2023-06-14T07:57:47;19.70;90.90
40676;DHT22;26359;48.750;9.314;2023-06-14T08:00:13;19.70;90.90
40676;DHT22;26359;48.750;9.314;2023-06-14T08:02:41;19.70;90.90
40676;DHT22;26359;48.750;9.314;2023-06-14T08:05:09;19.80;90.70
40676;DHT22;26359;48.750;9.314;2023-06-14T08:07:35;19.80;90.70
40676;DHT22;26359;48.750;9.314;2023-06-14T08:10:00;19.90;90.70
40676;DHT22;26359;48.750;9.314;2023-06-14T08:12:26;20.00;90.70
40676;DHT22;26359;48.750;9.314;2023-06-14T08:14:51;20.00;90.50
40676;DHT22;26359;48.750;9.314;2023-06-14T08:17:17;20.00;90.90
40676;DHT22;26359;48.750;9.314;2023-06-14T08:19:42;20.00;90.90
40676;DHT22;26359;48.750;9.314;2023-06-14T08:22:08;20.10;90.90
40676;DHT22;26359;48.750;9.314;2023-06-14T08:24:37;20.30;91.00
40676;DHT22;26359;48.750;9.314;2023-06-14T08:27:03;20.30;90.30
40676;DHT22;26359;48.750;9.314;2023-06-14T08:29:28;20.30;90.60
40676;DHT22;26359;48.750;9.314;2023-06-14T08:31:55;20.40;90.30
40676;DHT22;26359;48.750;9.314;2023-06-14T08:34:21;20.40;89.50
40676;DHT22;26359;48.750;9.314;2023-06-14T08:36:51;20.30;90.70
40676;DHT22;26359;48.750;9.314;2023-06-14T08:39:17;20.40;89.80
40676;DHT22;26359;48.750;9.314;2023-06-14T08:41:46;20.50;90.30
40676;DHT22;26359;48.750;9.314;2023-06-14T08:44:15;20.60;90.80
40676;DHT22;26359;48.750;9.314;2023-06-14T08:46:41;20.80;89.10
40676;DHT22;26359;48.750;9.314;2023-06-14T08:49:10;20.80;90.10
40676;DHT22;26359;48.750;9.314;2023-06-14T08:51:36;20.80;90.10
40676;DHT22;26359;48.750;9.314;2023-06-14T08:54:03;21.00;90.90
40676;DHT22;26359;48.750;9.314;2023-06-14T08:56:30;21.00;89.60
40676;DHT22;26359;48.750;9.314;2023-06-14T08:58:57;21.10;90.20
40676;DHT22;26359;48.750;9.314;2023-06-14T09:01:25;21.10;90.10
40676;DHT22;26359;48.750;9.314;2023-06-14T09:03:52;21.30;89.50
40676;DHT22;26359;48.750;9.314;2023-06-14T09:06:20;21.50;88.20
40676;DHT22;26359;48.750;9.314;2023-06-14T09:08:48;21.50;87.60
40676;DHT22;26359;48.750;9.314;2023-06-14T09:11:16;21.60;87.20
40676;DHT22;26359;48.750;9.314;2023-06-14T09:13:44;21.60;87.30
40676;DHT22;26359;48.750;9.314;2023-06-14T09:16:10;21.80;87.00
40676;DHT22;26359;48.750;9.314;2023-06-14T09:18:40;21.80;86.20
40676;DHT22;26359;48.750;9.314;2023-06-14T09:21:07;22.00;85.60
40676;DHT22;26359;48.750;9.314;2023-06-14T09:23:40;22.00;83.90
40676;DHT22;26359;48.750;9.314;2023-06-14T09:26:16;21.90;86.20
40676;DHT22;26359;48.750;9.314;2023-06-14T09:28:43;22.00;84.30
40676;DHT22;26359;48.750;9.314;2023-06-14T09:31:12;22.00;83.10
40676;DHT22;26359;48.750;9.314;2023-06-14T09:33:38;22.20;83.10
40676;DHT22;26359;48.750;9.314;2023-06-14T09:36:05;22.20;84.00
40676;DHT22;26359;48.750;9.314;2023-06-14T09:38:34;22.30;85.00
40676;DHT22;26359;48.750;9.314;2023-06-14T09:41:03;22.50;83.60
40676;DHT22;26359;48.750;9.314;2023-06-14T09:43:29;22.50;81.90
40676;DHT22;26359;48.750;9.314;2023-06-14T09:45:55;22.60;80.50
40676;DHT22;26359;48.750;9.314;2023-06-14T09:48:21;22.60;83.50
40676;DHT22;26359;48.750;9.314;2023-06-14T09:50:49;22.70;82.70
40676;DHT22;26359;48.750;9.314;2023-06-14T09:53:15;22.80;82.80
40676;DHT22;26359;48.750;9.314;2023-06-14T09:55:42;22.90;78.90
40676;DHT22;26359;48.750;9.314;2023-06-14T09:58:09;23.00;78.50
40676;DHT22;26359;48.750;9.314;2023-06-14T10:00:36;23.10;81.50
40676;DHT22;26359;48.750;9.314;2023-06-14T10:03:19;23.10;80.60
40676;DHT22;26359;48.750;9.314;2023-06-14T10:05:47;22.90;81.10
40676;DHT22;26359;48.750;9.314;2023-06-14T10:08:19;22.90;81.20
40676;DHT22;26359;48.750;9.314;2023-06-14T10:10:45;22.80;80.60
40676;DHT22;26359;48.750;9.314;2023-06-14T10:13:12;22.80;80.50
40676;DHT22;26359;48.750;9.314;2023-06-14T10:18:23;22.80;80.90
40676;DHT22;26359;48.750;9.314;2023-06-14T10:21:00;22.90;81.10
40676;DHT22;26359;48.750;9.314;2023-06-14T10:23:30;23.20;79.90
40676;DHT22;26359;48.750;9.314;2023-06-14T10:25:58;23.30;78.50
40676;DHT22;26359;48.750;9.314;2023-06-14T10:28:25;23.40;80.00
40676;DHT22;26359;48.750;9.314;2023-06-14T10:31:11;23.50;77.80
40676;DHT22;26359;48.750;9.314;2023-06-14T10:33:49;23.70;76.60
40676;DHT22;26359;48.750;9.314;2023-06-14T10:36:30;23.70;74.30
40676;DHT22;26359;48.750;9.314;2023-06-14T10:39:07;23.60;76.90
40676;DHT22;26359;48.750;9.314;2023-06-14T10:41:37;23.70;78.90
40676;DHT22;26359;48.750;9.314;2023-06-14T10:46:36;24.20;76.10
40676;DHT22;26359;48.750;9.314;2023-06-14T10:49:02;24.20;76.20
40676;DHT22;26359;48.750;9.314;2023-06-14T10:51:29;24.40;76.50
40676;DHT22;26359;48.750;9.314;2023-06-14T10:53:56;24.60;75.20
40676;DHT22;26359;48.750;9.314;2023-06-14T10:56:31;24.60;76.10
40676;DHT22;26359;48.750;9.314;2023-06-14T10:58:58;24.60;75.20
40676;DHT22;26359;48.750;9.314;2023-06-14T11:01:35;24.60;75.80
40676;DHT22;26359;48.750;9.314;2023-06-14T11:04:10;24.80;74.80
40676;DHT22;26359;48.750;9.314;2023-06-14T11:06:48;25.10;75.90
40676;DHT22;26359;48.750;9.314;2023-06-14T11:12:10;25.30;72.00
40676;DHT22;26359;48.750;9.314;2023-06-14T11:14:38;25.50;71.40
40676;DHT22;26359;48.750;9.314;2023-06-14T11:17:03;25.50;74.10
40676;DHT22;26359;48.750;9.314;2023-06-14T11:19:29;25.80;73.00
40676;DHT22;26359;48.750;9.314;2023-06-14T11:21:55;25.90;71.40
40676;DHT22;26359;48.750;9.314;2023-06-14T11:24:21;25.60;72.00
40676;DHT22;26359;48.750;9.314;2023-06-14T11:26:47;25.30;73.00
40676;DHT22;26359;48.750;9.314;2023-06-14T11:29:14;25.20;73.00
40676;DHT22;26359;48.750;9.314;2023-06-14T11:31:43;25.30;73.20
40676;DHT22;26359;48.750;9.314;2023-06-14T11:34:11;25.40;71.60
40676;DHT22;26359;48.750;9.314;2023-06-14T11:36:38;25.40;71.20
40676;DHT22;26359;48.750;9.314;2023-06-14T11:39:05;25.40;72.90
40676;DHT22;26359;48.750;9.314;2023-06-14T11:41:43;25.60;72.00
40676;DHT22;26359;48.750;9.314;2023-06-14T11:44:09;26.10;72.80
40676;DHT22;26359;48.750;9.314;2023-06-14T11:46:35;26.40;71.20
40676;DHT22;26359;48.750;9.314;2023-06-14T11:49:01;26.50;70.90
40676;DHT22;26359;48.750;9.314;2023-06-14T11:51:30;26.70;70.20
40676;DHT22;26359;48.750;9.314;2023-06-14T11:53:56;26.50;68.80
40676;DHT22;26359;48.750;9.314;2023-06-14T11:56:21;26.20;70.00
40676;DHT22;26359;48.750;9.314;2023-06-14T11:58:47;25.80;67.40
40676;DHT22;26359;48.750;9.314;2023-06-14T12:01:17;25.50;68.90
40676;DHT22;26359;48.750;9.314;2023-06-14T12:03:49;25.80;69.80
40676;DHT22;26359;48.750;9.314;2023-06-14T12:06:15;26.20;71.20
40676;DHT22;26359;48.750;9.314;2023-06-14T12:08:43;26.60;69.60
40676;DHT22;26359;48.750;9.314;2023-06-14T12:11:12;26.70;68.30
40676;DHT22;26359;48.750;9.314;2023-06-14T12:13:39;26.80;70.10
40676;DHT22;26359;48.750;9.314;2023-06-14T12:16:10;26.90;70.60
40676;DHT22;26359;48.750;9.314;2023-06-14T12:18:37;26.90;68.90
40676;DHT22;26359;48.750;9.314;2023-06-14T12:21:07;27.00;68.80
40676;DHT22;26359;48.750;9.314;2023-06-14T12:23:47;27.10;69.10
40676;DHT22;26359;48.750;9.314;2023-06-14T12:26:15;27.30;67.20
40676;DHT22;26359;48.750;9.314;2023-06-14T12:28:42;27.40;67.80
40676;DHT22;26359;48.750;9.314;2023-06-14T12:31:08;27.40;67.90
40676;DHT22;26359;48.750;9.314;2023-06-14T12:33:34;27.00;67.80
40676;DHT22;26359;48.750;9.314;2023-06-14T12:35:59;26.70;67.90
40676;DHT22;26359;48.750;9.314;2023-06-14T12:38:25;26.60;67.20
40676;DHT22;26359;48.750;9.314;2023-06-14T12:40:50;25.90;69.70
40676;DHT22;26359;48.750;9.314;2023-06-14T12:43:16;25.80;68.40
40676;DHT22;26359;48.750;9.314;2023-06-14T12:45:42;25.40;69.00
40676;DHT22;26359;48.750;9.314;2023-06-14T12:48:07;25.20;69.60
40676;DHT22;26359;48.750;9.314;2023-06-14T12:50:34;25.20;69.20
40676;DHT22;26359;48.750;9.314;2023-06-14T12:53:00;25.30;70.80
40676;DHT22;26359;48.750;9.314;2023-06-14T12:55:25;25.80;70.50
40676;DHT22;26359;48.750;9.314;2023-06-14T12:57:51;26.20;65.60
40676;DHT22;26359;48.750;9.314;2023-06-14T13:00:17;26.10;67.90
40676;DHT22;26359;48.750;9.314;2023-06-14T13:02:43;26.50;69.50
40676;DHT22;26359;48.750;9.314;2023-06-14T13:05:09;26.60;67.90
40676;DHT22;26359;48.750;9.314;2023-06-14T13:07:34;26.60;70.20
40676;DHT22;26359;48.750;9.314;2023-06-14T13:10:00;26.20;67.90
40676;DHT22;26359;48.750;9.314;2023-06-14T13:12:26;25.80;70.00
40676;DHT22;26359;48.750;9.314;2023-06-14T13:14:51;25.70;70.10
40676;DHT22;26359;48.750;9.314;2023-06-14T13:17:17;26.10;69.90
40676;DHT22;26359;48.750;9.314;2023-06-14T13:19:42;26.40;67.80
40676;DHT22;26359;48.750;9.314;2023-06-14T13:22:08;26.70;69.80
40676;DHT22;26359;48.750;9.314;2023-06-14T13:24:34;26.60;68.60
40676;DHT22;26359;48.750;9.314;2023-06-14T13:26:59;26.50;68.30
40676;DHT22;26359;48.750;9.314;2023-06-14T13:29:25;26.20;68.70
40676;DHT22;26359;48.750;9.314;2023-06-14T13:31:52;26.00;69.40
40676;DHT22;26359;48.750;9.314;2023-06-14T13:34:17;25.80;70.20
40676;DHT22;26359;48.750;9.314;2023-06-14T13:36:43;26.00;67.20
40676;DHT22;26359;48.750;9.314;2023-06-14T13:39:09;26.30;68.90
40676;DHT22;26359;48.750;9.314;2023-06-14T13:41:36;26.70;68.40
40676;DHT22;26359;48.750;9.314;2023-06-14T13:44:02;27.20;67.00
40676;DHT22;26359;48.750;9.314;2023-06-14T13:46:29;27.50;69.70
40676;DHT22;26359;48.750;9.314;2023-06-14T13:48:55;27.70;63.90
40676;DHT22;26359;48.750;9.314;2023-06-14T13:51:21;27.70;66.90
40676;DHT22;26359;48.750;9.314;2023-06-14T13:53:48;27.80;65.40
40676;DHT22;26359;48.750;9.314;2023-06-14T13:56:14;27.90;65.70
40676;DHT22;26359;48.750;9.314;2023-06-14T13:58:39;28.00;67.30
40676;DHT22;26359;48.750;9.314;2023-06-14T14:01:05;28.30;68.00
40676;DHT22;26359;48.750;9.314;2023-06-14T14:03:30;28.50;66.20
40676;DHT22;26359;48.750;9.314;2023-06-14T14:05:57;28.50;64.80
40676;DHT22;26359;48.750;9.314;2023-06-14T14:08:22;28.60;66.40
40676;DHT22;26359;48.750;9.314;2023-06-14T14:10:48;28.80;66.20
40676;DHT22;26359;48.750;9.314;2023-06-14T14:13:13;28.80;65.50
40676;DHT22;26359;48.750;9.314;2023-06-14T14:15:39;29.00;65.40
40676;DHT22;26359;48.750;9.314;2023-06-14T14:18:05;29.20;65.80
40676;DHT22;26359;48.750;9.314;2023-06-14T14:20:31;29.20;66.20
40676;DHT22;26359;48.750;9.314;2023-06-14T14:22:56;28.90;64.70
40676;DHT22;26359;48.750;9.314;2023-06-14T14:25:22;28.70;65.80
40676;DHT22;26359;48.750;9.314;2023-06-14T14:27:47;28.40;65.80
40676;DHT22;26359;48.750;9.314;2023-06-14T14:30:13;28.20;66.40
40676;DHT22;26359;48.750;9.314;2023-06-14T14:32:42;28.20;65.80
40676;DHT22;26359;48.750;9.314;2023-06-14T14:35:09;28.60;65.30
40676;DHT22;26359;48.750;9.314;2023-06-14T14:37:35;29.00;63.90
40676;DHT22;26359;48.750;9.314;2023-06-14T14:40:00;28.90;63.30
40676;DHT22;26359;48.750;9.314;2023-06-14T14:42:26;29.00;63.70
40676;DHT22;26359;48.750;9.314;2023-06-14T14:44:52;28.30;63.60
40676;DHT22;26359;48.750;9.314;2023-06-14T14:47:17;27.70;63.80
40676;DHT22;26359;48.750;9.314;2023-06-14T14:49:43;27.30;64.30
40676;DHT22;26359;48.750;9.314;2023-06-14T14:52:08;27.00;64.60
40676;DHT22;26359;48.750;9.314;2023-06-14T14:54:34;26.50;65.30
40676;DHT22;26359;48.750;9.314;2023-06-14T14:57:01;26.30;67.70
40676;DHT22;26359;48.750;9.314;2023-06-14T14:59:26;26.10;67.90
40676;DHT22;26359;48.750;9.314;2023-06-14T15:01:52;26.00;68.70
40676;DHT22;26359;48.750;9.314;2023-06-14T15:04:18;25.80;69.10
40676;DHT22;26359;48.750;9.314;2023-06-14T15:06:43;25.60;69.30
40676;DHT22;26359;48.750;9.314;2023-06-14T15:09:09;25.50;70.20
40676;DHT22;26359;48.750;9.314;2023-06-14T15:11:34;25.30;70.60
40676;DHT22;26359;48.750;9.314;2023-06-14T15:14:00;25.20;70.90
40676;DHT22;26359;48.750;9.314;2023-06-14T15:16:25;25.00;71.60
40676;DHT22;26359;48.750;9.314;2023-06-14T15:18:51;24.90;71.50
40676;DHT22;26359;48.750;9.314;2023-06-14T15:21:16;24.90;72.00
40676;DHT22;26359;48.750;9.314;2023-06-14T15:23:45;25.10;71.60
40676;DHT22;26359;48.750;9.314;2023-06-14T15:26:11;25.50;72.10
40676;DHT22;26359;48.750;9.314;2023-06-14T15:28:36;25.60;70.60
40676;DHT22;26359;48.750;9.314;2023-06-14T15:31:02;25.80;71.60
40676;DHT22;26359;48.750;9.314;2023-06-14T15:33:27;26.00;70.60
40676;DHT22;26359;48.750;9.314;2023-06-14T15:35:53;26.10;70.20
40676;DHT22;26359;48.750;9.314;2023-06-14T15:38:20;26.20;69.80
40676;DHT22;26359;48.750;9.314;2023-06-14T15:40:45;26.20;71.10